Time;durP1;ratioP1;P1;durP2;ratioP2;P2;SDS_P1;SDS_P2;PMS_P1;PMS_P2;Temp;Humidity;BMP_temperature;BMP_pressure;BME280_temperature;BME280_humidity;BME280_pressure;Samples;Min_cycle;Max_cycle;Signal;HPM_P1;HPM_P2
2022/05/23 00:00:01;;;;;;;3.58;2.60;;;18.00;71.30;;;;;;5244172;28;20063;-81
2022/05/23 00:02:34;;;;;;;7.43;2.80;;;17.90;71.60;;;;;;5242488;28;20261;-81
2022/05/23 00:05:09;;;;;;;7.30;2.83;;;17.90;71.60;;;;;;5245536;28;20138;-81
2022/05/23 00:07:44;;;;;;;4.68;2.83;;;17.90;71.70;;;;;;5232849;28;20044;-81
2022/05/23 00:10:19;;;;;;;3.90;3.03;;;17.90;72.30;;;;;;5242736;28;20132;-81
2022/05/23 00:12:52;;;;;;;4.28;2.75;;;17.90;72.40;;;;;;5247634;28;20041;-81
2022/05/23 00:15:24;;;;;;;5.10;3.08;;;17.90;72.30;;;;;;5246097;28;20051;-81
2022/05/23 00:17:57;;;;;;;4.55;2.90;;;18.00;72.30;;;;;;5244032;28;20044;-81
2022/05/23 00:20:29;;;;;;;7.63;2.60;;;17.90;72.30;;;;;;5244767;28;20056;-81
2022/05/23 00:23:01;;;;;;;4.57;2.90;;;18.00;73.00;;;;;;5242118;28;20068;-81
2022/05/23 00:25:34;;;;;;;5.28;2.58;;;18.00;73.00;;;;;;5242218;28;20044;-81
2022/05/23 00:28:06;;;;;;;4.15;2.67;;;18.00;73.40;;;;;;5241959;28;20063;-82
2022/05/23 00:30:39;;;;;;;6.95;3.30;;;17.90;72.80;;;;;;5255232;28;20510;-81
2022/05/23 00:36:03;;;;;;;3.10;2.20;;;17.90;73.00;;;;;;5253231;28;20044;-81
2022/05/23 00:38:35;;;;;;;3.65;2.40;;;17.80;72.80;;;;;;5254298;28;20523;-82
2022/05/23 00:44:34;;;;;;;5.53;3.13;;;17.80;73.40;;;;;;5264365;27;20054;-82
2022/05/23 00:47:26;;;;;;;6.18;2.92;;;17.80;73.20;;;;;;5247217;28;20043;-82
2022/05/23 00:49:59;;;;;;;4.03;2.80;;;17.70;73.90;;;;;;5246342;28;20052;-82
2022/05/23 00:52:34;;;;;;;;;;;17.70;73.60;;;;;;5225531;28;20055;-82
2022/05/23 00:55:14;;;;;;;4.88;2.88;;;17.60;75.00;;;;;;5243948;28;20311;-82
2022/05/23 00:57:49;;;;;;;4.57;2.90;;;17.60;73.90;;;;;;5253018;28;20048;-82
2022/05/23 01:00:22;;;;;;;7.18;3.03;;;17.70;74.60;;;;;;5241277;28;20052;-81
2022/05/23 01:03:00;;;;;;;5.47;3.28;;;17.60;74.60;;;;;;5231005;28;20048;-81
2022/05/23 01:05:36;;;;;;;6.05;2.47;;;17.60;75.20;;;;;;5225800;28;20048;-81
2022/05/23 01:08:08;;;;;;;5.82;3.03;;;17.60;75.70;;;;;;5237608;28;20066;-81
2022/05/23 01:10:45;;;;;;;6.15;2.75;;;17.60;76.10;;;;;;5222558;28;20040;-81
2022/05/23 01:13:17;;;;;;;3.53;2.60;;;17.60;76.50;;;;;;5232902;28;20045;-81
2022/05/23 01:15:50;;;;;;;4.70;3.05;;;17.50;77.00;;;;;;5243907;28;20597;-81
2022/05/23 01:18:24;;;;;;;4.13;2.90;;;17.50;77.70;;;;;;5246554;28;20056;-81
2022/05/23 01:21:01;;;;;;;4.65;2.85;;;17.40;78.30;;;;;;5259950;28;20044;-81
2022/05/23 01:23:58;;;;;;;4.18;2.63;;;17.40;78.30;;;;;;5266708;28;20044;-81
2022/05/23 01:26:35;;;;;;;5.40;3.00;;;17.30;78.90;;;;;;5238742;28;20044;-80
2022/05/23 01:29:12;;;;;;;7.63;3.07;;;17.30;78.60;;;;;;5257364;28;20048;-80
2022/05/23 01:31:55;;;;;;;5.45;2.75;;;17.20;78.90;;;;;;5253453;28;20036;-81
2022/05/23 01:34:32;;;;;;;5.22;3.30;;;17.20;78.80;;;;;;5261105;28;20048;-80
2022/05/23 01:37:10;;;;;;;5.25;2.83;;;17.20;79.00;;;;;;5237884;28;20043;-80
2022/05/23 01:40:09;;;;;;;6.45;3.22;;;17.20;79.20;;;;;;5237397;28;20060;-80
2022/05/23 01:43:02;;;;;;;4.47;2.95;;;17.10;79.50;;;;;;5241735;28;20063;-80
2022/05/23 01:45:39;;;;;;;4.50;3.20;;;17.10;79.30;;;;;;5248613;28;20067;-80
2022/05/23 01:48:22;;;;;;;5.38;3.03;;;17.10;79.50;;;;;;5242228;28;20052;-80
2022/05/23 01:50:55;;;;;;;4.85;3.13;;;17.20;79.70;;;;;;5251012;28;20040;-80
2022/05/23 01:53:28;;;;;;;4.65;2.78;;;17.20;79.90;;;;;;5246891;28;20055;-80
2022/05/23 01:56:08;;;;;;;5.60;3.83;;;17.20;80.10;;;;;;5256538;28;20055;-80
2022/05/23 02:01:52;;;;;;;3.10;2.80;;;17.10;79.40;;;;;;5246523;28;20055;-80
2022/05/23 02:04:38;;;;;;;3.35;3.05;;;17.10;78.90;;;;;;5251624;28;20056;-80
2022/05/23 02:07:11;;;;;;;5.38;3.00;;;17.10;79.80;;;;;;5245689;28;20055;-81
2022/05/23 02:09:45;;;;;;;4.97;3.20;;;17.10;79.60;;;;;;5243989;28;20566;-80
2022/05/23 02:12:24;;;;;;;7.28;3.38;;;17.00;79.60;;;;;;5233843;28;20063;-81
2022/05/23 02:14:59;;;;;;;5.13;3.33;;;17.00;80.20;;;;;;5245045;28;20071;-80
2022/05/23 02:17:50;;;;;;;4.55;3.08;;;16.90;80.20;;;;;;5246056;28;20055;-80
2022/05/23 02:20:23;;;;;;;7.68;3.22;;;16.90;80.70;;;;;;5234908;28;20044;-81
2022/05/23 02:22:56;;;;;;;5.35;3.20;;;17.00;80.90;;;;;;5228976;28;20052;-81
2022/05/23 02:25:29;;;;;;;6.95;3.30;;;17.00;81.50;;;;;;5251267;28;20048;-80
2022/05/23 02:28:04;;;;;;;5.07;2.95;;;17.00;82.10;;;;;;5265854;28;20052;-81
2022/05/23 02:30:48;;;;;;;6.07;3.50;;;17.00;82.70;;;;;;5255955;28;20052;-81
2022/05/23 02:33:35;;;;;;;9.75;3.10;;;17.00;83.30;;;;;;5265767;28;20048;-80
2022/05/23 02:36:27;;;;;;;5.00;2.92;;;17.00;83.10;;;;;;5254687;28;20083;-80
2022/05/23 02:39:00;;;;;;;;;;;17.10;83.60;;;;;;5239972;28;20044;-81
2022/05/23 02:41:33;;;;;;;5.13;3.20;;;16.90;85.10;;;;;;5239786;28;20319;-81
2022/05/23 02:44:07;;;;;;;5.15;3.15;;;16.90;84.10;;;;;;5243929;28;20067;-81
2022/05/23 02:46:39;;;;;;;4.47;3.40;;;16.90;84.50;;;;;;5254431;28;20055;-80
2022/05/23 02:49:18;;;;;;;6.97;3.42;;;16.80;85.00;;;;;;5251380;28;20048;-80
2022/05/23 02:51:53;;;;;;;5.00;3.22;;;16.70;86.00;;;;;;5242968;28;20052;-81
2022/05/23 02:54:29;;;;;;;4.82;2.90;;;16.70;86.30;;;;;;5255683;28;20595;-81
2022/05/23 02:57:06;;;;;;;6.97;3.40;;;16.70;86.60;;;;;;5247196;28;20059;-80
2022/05/23 02:59:39;;;;;;;4.17;3.33;;;16.80;86.40;;;;;;5221632;28;20048;-78
2022/05/23 03:05:08;;;;;;;4.50;2.63;;;16.70;87.10;;;;;;5237140;28;20575;-80
2022/05/23 03:07:40;;;;;;;4.95;3.28;;;16.70;87.50;;;;;;5253242;28;20036;-80
2022/05/23 03:10:13;;;;;;;6.30;3.47;;;16.70;86.70;;;;;;5244207;28;20032;-79
2022/05/23 03:12:45;;;;;;;4.75;3.38;;;16.70;86.60;;;;;;5251289;28;20066;-80
2022/05/23 03:15:18;;;;;;;4.90;3.25;;;16.70;87.30;;;;;;5242978;28;20036;-80
2022/05/23 03:17:50;;;;;;;7.88;3.70;;;16.70;88.20;;;;;;5227074;28;20044;-80
2022/05/23 03:20:23;;;;;;;5.57;3.50;;;16.60;88.40;;;;;;5234371;28;20052;-79
2022/05/23 03:28:41;;;;;;;4.63;3.67;;;16.70;89.20;;;;;;5258006;27;20045;-81
2022/05/23 03:31:13;;;;;;;5.18;3.40;;;16.60;90.00;;;;;;5239745;28;20044;-81
2022/05/23 03:33:46;;;;;;;3.65;3.17;;;16.70;90.50;;;;;;5239187;28;20044;-81
2022/05/23 03:36:19;;;;;;;4.53;3.55;;;16.60;91.00;;;;;;5225341;28;20049;-79
2022/05/23 03:38:51;;;;;;;5.47;3.40;;;16.70;91.20;;;;;;5227591;28;20059;-79
2022/05/23 03:41:24;;;;;;;8.50;3.47;;;16.60;91.60;;;;;;5220665;28;20051;-80
2022/05/23 03:43:57;;;;;;;6.20;3.65;;;16.60;92.20;;;;;;5243181;28;20052;-80
2022/05/23 03:46:29;;;;;;;4.85;3.55;;;16.60;92.20;;;;;;5229907;28;20048;-79
2022/05/23 03:49:06;;;;;;;5.63;3.30;;;16.50;91.70;;;;;;5236622;28;20055;-80
2022/05/23 03:51:39;;;;;;;7.43;3.60;;;16.50;91.30;;;;;;5235124;28;20044;-80
2022/05/23 03:54:11;;;;;;;7.47;3.50;;;16.50;91.50;;;;;;5228449;28;20132;-80
2022/05/23 03:56:45;;;;;;;6.60;3.78;;;16.50;91.40;;;;;;5218455;28;20071;-82
2022/05/23 03:59:18;;;;;;;3.97;3.27;;;16.60;91.30;;;;;;5209550;28;20047;-80
2022/05/23 04:01:57;;;;;;;4.32;3.40;;;16.60;91.40;;;;;;5234811;28;20040;-81
2022/05/23 04:04:36;;;;;;;5.30;3.10;;;16.60;91.30;;;;;;5229744;28;20059;-81
2022/05/23 04:07:43;;;;;;;8.13;3.75;;;16.60;91.50;;;;;;5223739;28;20063;-80
2022/05/23 04:10:32;;;;;;;5.10;3.35;;;16.60;91.20;;;;;;5240402;28;20666;-81
2022/05/23 04:13:05;;;;;;;5.55;4.13;;;16.70;91.10;;;;;;5239202;28;20901;-80
2022/05/23 04:15:40;;;;;;;6.78;3.88;;;16.70;91.00;;;;;;5247574;27;20075;-80
2022/05/23 04:18:13;;;;;;;8.30;4.18;;;16.70;90.70;;;;;;5248227;27;20048;-80
2022/05/23 04:20:47;;;;;;;6.13;3.87;;;16.70;90.80;;;;;;5240122;28;20052;-80
2022/05/23 04:23:23;;;;;;;6.57;4.05;;;16.70;91.00;;;;;;5223575;28;20424;-80
2022/05/23 04:26:00;;;;;;;5.40;4.07;;;16.70;91.00;;;;;;5226443;28;20048;-81
2022/05/23 04:28:33;;;;;;;6.32;3.60;;;16.60;91.30;;;;;;5241979;28;20318;-80
2022/05/23 04:31:07;;;;;;;6.38;3.83;;;16.70;91.20;;;;;;5231339;28;20048;-80
2022/05/23 04:36:59;;;;;;;10.27;4.10;;;16.70;91.40;;;;;;5227497;28;20641;-80
2022/05/23 04:39:48;;;;;;;7.93;4.28;;;16.80;91.30;;;;;;5208783;28;20419;-80
2022/05/23 04:42:21;;;;;;;4.40;3.58;;;16.80;91.00;;;;;;5231209;28;20052;-80
2022/05/23 04:44:53;;;;;;;4.47;3.45;;;16.80;91.10;;;;;;5222521;28;20044;-80
2022/05/23 04:50:25;;;;;;;6.00;4.10;;;16.90;91.70;;;;;;5221527;28;20048;-80
2022/05/23 04:53:05;;;;;;;5.55;3.88;;;16.80;91.80;;;;;;5247977;28;20055;-80
2022/05/23 04:55:47;;;;;;;7.63;4.45;;;16.90;92.10;;;;;;5242776;28;20040;-80
2022/05/23 04:58:20;;;;;;;6.40;3.58;;;16.90;92.00;;;;;;5234138;28;20404;-80
2022/05/23 05:00:56;;;;;;;7.13;3.92;;;17.00;92.30;;;;;;5238485;28;20057;-82
2022/05/23 05:03:29;;;;;;;9.65;4.30;;;17.00;92.00;;;;;;5243807;28;20052;-81
2022/05/23 05:06:03;;;;;;;4.90;3.95;;;17.00;91.90;;;;;;5242851;28;20058;-80
2022/05/23 05:08:36;;;;;;;7.00;3.83;;;17.00;92.40;;;;;;5220030;28;20058;-80
2022/05/23 05:11:09;;;;;;;9.55;4.57;;;17.10;92.60;;;;;;5227874;28;20048;-78
2022/05/23 05:13:44;;;;;;;5.25;3.75;;;17.10;92.60;;;;;;5198214;28;20135;-77
2022/05/23 05:16:23;;;;;;;7.88;3.83;;;17.10;92.70;;;;;;5238176;28;20036;-78
2022/05/23 05:19:01;;;;;;;5.80;4.15;;;17.20;92.70;;;;;;5238559;28;20044;-78
2022/05/23 05:21:56;;;;;;;6.72;3.80;;;17.30;93.10;;;;;;5222524;28;20079;-81
2022/05/23 05:24:48;;;;;;;5.95;3.78;;;17.30;92.80;;;;;;5214873;28;21859;-81
2022/05/23 05:27:39;;;;;;;8.23;4.15;;;17.30;92.70;;;;;;5240593;28;20419;-81
2022/05/23 05:30:16;;;;;;;8.70;4.30;;;17.30;93.00;;;;;;5227933;28;20621;-83
2022/05/23 05:33:12;;;;;;;6.57;4.00;;;17.40;93.10;;;;;;5213322;28;20443;-83
2022/05/23 05:35:54;;;;;;;6.45;3.80;;;17.40;93.60;;;;;;5216783;28;20044;-83
2022/05/23 05:38:37;;;;;;;5.13;4.00;;;17.50;93.50;;;;;;5223530;28;20048;-83
2022/05/23 05:41:12;;;;;;;6.57;4.03;;;17.50;93.60;;;;;;5247181;28;20075;-83
2022/05/23 05:43:50;;;;;;;7.25;4.00;;;17.60;93.60;;;;;;5218468;28;20048;-84
2022/05/23 05:46:30;;;;;;;10.32;4.32;;;17.60;94.00;;;;;;5237649;28;20048;-84
2022/05/23 05:49:18;;;;;;;6.35;4.03;;;17.70;93.80;;;;;;5258169;28;20048;-83
2022/05/23 05:51:55;;;;;;;7.90;4.68;;;17.80;93.60;;;;;;5244409;28;20056;-83
2022/05/23 05:54:39;;;;;;;4.85;3.63;;;17.90;92.90;;;;;;5236892;28;20938;-82
2022/05/23 05:57:15;;;;;;;7.50;3.85;;;17.90;93.10;;;;;;5245987;28;20044;-83
2022/05/23 05:59:49;;;;;;;6.47;3.85;;;18.00;93.40;;;;;;5260750;28;20060;-84
2022/05/23 06:02:23;;;;;;;7.93;4.07;;;18.10;92.70;;;;;;5255971;28;20426;-84
2022/05/23 06:04:56;;;;;;;5.30;4.15;;;18.20;93.10;;;;;;5232537;28;20044;-83
2022/05/23 06:13:37;;;;;;;6.10;4.00;;;18.50;92.10;;;;;;5236554;28;20044;-83
2022/05/23 06:16:30;;;;;;;7.55;4.05;;;18.50;91.90;;;;;;5223083;28;20040;-83
2022/05/23 06:19:03;;;;;;;9.90;4.50;;;18.60;92.60;;;;;;5251700;28;20047;-83
2022/05/23 06:21:41;;;;;;;7.50;3.63;;;18.70;92.30;;;;;;5222785;28;20060;-81
2022/05/23 06:24:14;;;;;;;8.37;4.73;;;18.70;92.20;;;;;;5226158;28;20437;-80
2022/05/23 06:26:53;;;;;;;6.93;4.15;;;18.70;92.40;;;;;;5246690;28;20306;-81
2022/05/23 06:29:49;;;;;;;8.50;4.40;;;18.80;92.30;;;;;;5220295;28;20068;-80
2022/05/23 06:32:49;;;;;;;8.52;4.45;;;18.90;92.40;;;;;;5241413;28;20043;-81
2022/05/23 06:35:26;;;;;;;8.05;4.10;;;18.90;92.50;;;;;;5238969;28;20428;-80
2022/05/23 06:37:58;;;;;;;7.18;4.40;;;19.00;92.40;;;;;;5248120;28;20052;-81
2022/05/23 06:40:51;;;;;;;8.38;4.50;;;19.10;92.60;;;;;;5249513;28;20052;-81
2022/05/23 06:43:43;;;;;;;7.07;4.07;;;19.20;92.00;;;;;;5258702;28;20048;-81
2022/05/23 06:46:34;;;;;;;9.18;4.38;;;19.30;91.50;;;;;;5250395;28;20036;-81
2022/05/23 06:49:26;;;;;;;6.57;4.00;;;19.40;91.00;;;;;;5249324;28;20055;-80
2022/05/23 06:52:08;;;;;;;5.93;4.55;;;19.40;90.60;;;;;;5250928;28;20044;-80
2022/05/23 06:55:00;;;;;;;7.72;4.25;;;19.70;89.00;;;;;;5249357;28;20048;-81
2022/05/23 06:57:46;;;;;;;6.35;4.22;;;19.80;88.30;;;;;;5245022;28;20059;-81
2022/05/23 07:00:21;;;;;;;6.40;4.70;;;19.70;88.40;;;;;;5258723;28;20048;-81
2022/05/23 07:03:05;;;;;;;7.05;4.40;;;19.70;90.20;;;;;;5258228;28;20521;-80
2022/05/23 07:14:29;;;;;;;6.57;4.72;;;19.90;90.80;;;;;;5260752;28;20045;-81
2022/05/23 07:17:05;;;;;;;6.88;4.53;;;19.80;90.40;;;;;;5237297;28;20055;-80
2022/05/23 07:20:13;;;;;;;7.93;4.47;;;19.90;90.60;;;;;;5232108;28;20052;-80
2022/05/23 07:22:56;;;;;;;8.77;4.10;;;19.80;90.70;;;;;;5247959;28;20048;-80
2022/05/23 07:25:32;;;;;;;22.98;5.53;;;19.80;90.50;;;;;;5227394;28;20056;-81
2022/05/23 07:28:05;;;;;;;11.17;5.37;;;20.00;90.90;;;;;;5247692;28;20052;-80
2022/05/23 07:30:38;;;;;;;7.40;4.13;;;20.00;90.50;;;;;;5251322;28;20048;-81
2022/05/23 07:33:11;;;;;;;12.32;4.38;;;20.00;90.50;;;;;;5244410;28;20058;-81
2022/05/23 07:36:01;;;;;;;10.23;4.97;;;19.90;90.40;;;;;;5243567;28;20073;-81
2022/05/23 07:38:38;;;;;;;6.03;4.20;;;19.90;91.10;;;;;;5242500;28;20432;-81
2022/05/23 07:41:15;;;;;;;8.18;4.60;;;20.00;91.00;;;;;;5246425;28;20036;-80
2022/05/23 07:43:48;;;;;;;;;;;20.00;89.70;;;;;;5241430;28;20060;-81
2022/05/23 07:46:21;;;;;;;10.02;4.40;;;19.80;87.40;;;;;;5262755;28;19946;-81
2022/05/23 07:48:56;;;;;;;11.30;4.93;;;19.90;87.40;;;;;;5237675;28;20059;-81
2022/05/23 07:51:36;;;;;;;10.48;3.88;;;19.80;85.70;;;;;;5254026;28;20571;-80
2022/05/23 08:03:14;;;;;;;13.05;5.22;;;19.30;84.80;;;;;;5249784;28;20051;-80
2022/05/23 08:05:49;;;;;;;14.98;6.13;;;19.10;84.50;;;;;;5250190;28;20072;-80
2022/05/23 08:08:23;;;;;;;11.48;5.45;;;18.90;85.60;;;;;;5244928;28;20060;-81
2022/05/23 08:10:55;;;;;;;13.70;5.88;;;18.80;85.30;;;;;;5238512;28;20059;-81
2022/05/23 08:13:31;;;;;;;10.52;5.88;;;18.80;86.00;;;;;;5242675;28;20055;-80
2022/05/23 08:16:05;;;;;;;10.63;5.70;;;18.80;87.60;;;;;;5237675;28;20048;-80
2022/05/23 08:18:37;;;;;;;34.60;6.70;;;18.80;88.50;;;;;;5242808;28;20958;-81
2022/05/23 08:21:11;;;;;;;10.52;6.18;;;18.90;88.60;;;;;;5250801;28;20051;-81
2022/05/23 08:23:47;;;;;;;14.55;5.85;;;18.80;88.30;;;;;;5233412;28;20063;-81
2022/05/23 08:26:27;;;;;;;11.73;5.90;;;18.90;88.30;;;;;;5259645;28;20467;-81
2022/05/23 08:29:00;;;;;;;14.15;6.55;;;18.90;88.90;;;;;;5234897;28;20040;-81
2022/05/23 08:31:41;;;;;;;11.95;6.22;;;18.90;88.40;;;;;;5241900;28;20056;-80
2022/05/23 08:34:22;;;;;;;8.82;5.68;;;18.80;88.50;;;;;;5245420;28;20036;-81
2022/05/23 08:36:55;;;;;;;14.52;6.38;;;18.80;88.60;;;;;;5254737;28;20040;-81
2022/05/23 08:39:32;;;;;;;11.85;6.80;;;18.60;90.00;;;;;;5241858;28;20045;-80
2022/05/23 08:42:21;;;;;;;12.20;6.90;;;18.40;91.60;;;;;;5222491;28;20065;-79
2022/05/23 08:45:14;;;;;;;10.43;7.07;;;18.30;94.90;;;;;;5240449;28;20063;-80
2022/05/23 08:48:05;;;;;;;9.80;6.80;;;18.20;97.40;;;;;;5219044;28;20049;-81
2022/05/23 08:51:15;;;;;;;10.35;6.75;;;18.10;98.10;;;;;;5237597;28;20047;-82
2022/05/23 08:54:27;;;;;;;10.18;6.63;;;18.20;97.50;;;;;;5239759;28;20044;-80
2022/05/23 08:57:37;;;;;;;10.40;6.45;;;18.30;97.40;;;;;;5259272;22;20041;-75
2022/05/23 09:00:16;;;;;;;12.95;6.03;;;18.40;96.50;;;;;;5203373;28;20032;-75
2022/05/23 09:03:29;;;;;;;9.98;6.00;;;18.40;96.00;;;;;;5220204;28;20057;-75
2022/05/23 09:06:32;;;;;;;7.28;5.60;;;18.60;95.40;;;;;;5220935;28;20061;-74
2022/05/23 09:09:07;;;;;;;8.25;5.60;;;18.80;94.90;;;;;;5219817;28;20049;-75
2022/05/23 09:11:46;;;;;;;10.52;5.88;;;19.10;95.90;;;;;;5221273;28;20064;-76
2022/05/23 09:14:19;;;;;;;8.30;5.35;;;19.20;94.20;;;;;;5227797;28;20826;-76
2022/05/23 09:16:53;;;;;;;;;;;19.40;92.40;;;;;;5221218;28;20528;-76
2022/05/23 09:19:27;;;;;;;9.17;5.33;;;19.40;92.40;;;;;;5218230;28;19932;-75
2022/05/23 09:22:12;;;;;;;5.72;4.60;;;19.70;91.60;;;;;;5223086;28;20648;-75
2022/05/23 09:24:47;;;;;;;8.68;4.57;;;19.90;91.20;;;;;;5224346;28;20045;-76
2022/05/23 09:27:35;;;;;;;7.82;5.05;;;20.00;90.50;;;;;;5223949;28;20674;-76
2022/05/23 09:30:12;;;;;;;6.32;4.53;;;20.10;86.30;;;;;;5225867;28;20037;-74
2022/05/23 09:32:53;;;;;;;10.70;4.18;;;20.30;87.70;;;;;;5222853;28;20056;-74
2022/05/23 09:35:28;;;;;;;7.78;4.45;;;20.50;85.30;;;;;;5229263;28;20051;-76
2022/05/23 09:38:16;;;;;;;10.48;4.07;;;20.70;83.60;;;;;;5222028;28;20051;-75
2022/05/23 09:47:44;;;;;;;9.80;4.10;;;20.80;81.90;;;;;;5197792;28;20044;-74
2022/05/23 09:47:45;;;;;;;10.73;3.85;;;21.20;80.20;;;;;;5226241;28;20057;-75
2022/05/23 09:50:27;;;;;;;9.20;3.92;;;21.50;78.90;;;;;;5223712;28;20416;-75
2022/05/23 09:53:52;;;;;;;10.95;3.83;;;21.70;74.80;;;;;;5216577;28;20423;-76
2022/05/23 09:56:34;;;;;;;7.85;3.50;;;21.80;74.30;;;;;;5225732;28;20492;-75
2022/05/23 09:59:18;;;;;;;8.45;3.78;;;21.80;72.80;;;;;;5206042;28;21141;-75
2022/05/23 10:01:52;;;;;;;10.32;3.42;;;22.00;72.80;;;;;;5221190;28;20036;-76
2022/05/23 10:04:31;;;;;;;10.25;3.90;;;22.30;73.00;;;;;;5223122;28;20049;-75
2022/05/23 10:07:37;;;;;;;10.50;4.05;;;22.40;72.10;;;;;;5215865;28;20041;-74
2022/05/23 10:10:26;;;;;;;8.25;4.10;;;22.50;70.20;;;;;;5219656;28;20496;-76
2022/05/23 10:13:13;;;;;;;7.80;3.58;;;22.60;70.80;;;;;;5216348;28;20044;-75
2022/05/23 10:15:52;;;;;;;7.10;3.40;;;22.70;70.50;;;;;;5216887;28;20059;-74
2022/05/23 10:18:35;;;;;;;10.70;3.70;;;22.70;70.20;;;;;;5220190;28;20055;-74
2022/05/23 10:21:43;;;;;;;7.07;3.97;;;23.00;71.00;;;;;;5229047;28;20506;-76
2022/05/23 10:24:17;;;;;;;13.80;4.20;;;23.20;70.00;;;;;;5210713;28;20060;-76
2022/05/23 10:26:57;;;;;;;10.02;4.45;;;23.30;70.10;;;;;;5225853;28;20059;-76
2022/05/23 10:29:40;;;;;;;9.10;4.90;;;23.40;70.30;;;;;;5227913;28;20060;-78
2022/05/23 10:32:18;;;;;;;;;;;23.50;70.10;;;;;;5235176;28;20044;-79
2022/05/23 10:34:59;;;;;;;10.73;5.50;;;23.60;68.40;;;;;;5233680;28;20264;-77
2022/05/23 10:37:36;;;;;;;9.80;5.38;;;23.70;68.50;;;;;;5234904;28;20037;-78
2022/05/23 10:43:19;;;;;;;11.38;6.32;;;23.80;67.70;;;;;;5233552;28;20055;-78
2022/05/23 10:45:57;;;;;;;17.33;5.60;;;23.80;67.90;;;;;;5233507;28;20049;-78
2022/05/23 10:48:39;;;;;;;11.63;4.65;;;23.80;67.70;;;;;;5232434;28;20053;-77
2022/05/23 10:51:29;;;;;;;24.25;14.75;;;23.80;67.60;;;;;;5233921;28;20040;-77
2022/05/23 10:54:30;;;;;;;13.07;5.47;;;23.80;67.40;;;;;;5231294;28;20045;-79
2022/05/23 10:57:25;;;;;;;25.25;14.68;;;24.00;67.30;;;;;;5231318;28;20743;-78
2022/05/23 11:00:06;;;;;;;230.30;206.98;;;24.20;67.70;;;;;;5206423;28;20060;-78
2022/05/23 11:03:10;;;;;;;18.20;9.23;;;24.60;67.60;;;;;;5227579;28;20401;-79
2022/05/23 11:05:54;;;;;;;12.47;5.40;;;24.60;65.20;;;;;;5234766;28;20056;-78
2022/05/23 11:08:57;;;;;;;12.43;5.90;;;24.70;65.10;;;;;;5227647;28;20052;-78
2022/05/23 11:11:55;;;;;;;11.68;4.45;;;24.90;63.80;;;;;;5240130;28;20060;-78
2022/05/23 11:15:15;;;;;;;15.93;5.40;;;25.20;63.20;;;;;;5200054;28;20068;-78
2022/05/23 11:18:12;;;;;;;10.68;4.85;;;25.60;62.90;;;;;;5211000;28;20060;-77
2022/05/23 11:20:49;;;;;;;12.00;4.63;;;25.70;62.70;;;;;;5207747;28;20041;-78
2022/05/23 11:23:30;;;;;;;7.97;4.90;;;26.00;63.10;;;;;;5225796;28;20049;-80
2022/05/23 11:26:17;;;;;;;14.07;5.72;;;26.20;61.70;;;;;;5226035;28;20040;-82
2022/05/23 11:34:46;;;;;;;10.00;4.05;;;26.80;60.30;;;;;;5207446;28;20041;-78
2022/05/23 11:40:04;;;;;;;13.55;5.18;;;27.20;60.20;;;;;;5222077;28;20040;-80
2022/05/23 11:42:55;;;;;;;7.07;4.27;;;27.10;60.90;;;;;;5220322;28;20559;-78
2022/05/23 11:48:40;;;;;;;10.93;4.30;;;27.50;57.50;;;;;;5214504;28;21624;-77
2022/05/23 11:51:14;;;;;;;11.40;3.90;;;28.10;57.70;;;;;;5225429;28;20052;-76
2022/05/23 11:54:05;;;;;;;12.20;4.97;;;28.30;56.20;;;;;;5218053;28;20389;-77
2022/05/23 11:57:00;;;;;;;9.05;4.10;;;28.80;56.30;;;;;;5219275;28;20048;-77
2022/05/23 11:59:35;;;;;;;9.95;3.83;;;29.10;55.40;;;;;;5215499;28;20804;-77
2022/05/23 12:02:11;;;;;;;10.05;4.00;;;29.40;56.40;;;;;;5214049;28;20049;-78
2022/05/23 12:04:50;;;;;;;7.00;4.50;;;29.70;55.00;;;;;;5214170;28;20614;-78
2022/05/23 12:07:34;;;;;;;8.23;4.10;;;29.60;53.20;;;;;;5221254;28;20558;-78
2022/05/23 12:10:22;;;;;;;6.60;3.70;;;29.60;54.40;;;;;;5228706;28;20051;-77
2022/05/23 12:12:56;;;;;;;11.80;4.03;;;29.70;54.40;;;;;;5227277;28;20040;-78
2022/05/23 12:15:43;;;;;;;;;;;29.20;54.40;;;;;;5219569;28;20045;-77
2022/05/23 12:18:23;;;;;;;9.52;3.80;;;29.20;53.60;;;;;;5213644;28;19924;-77
2022/05/23 12:21:03;;;;;;;9.00;3.65;;;29.20;53.90;;;;;;5205160;28;20041;-77
2022/05/23 12:23:42;;;;;;;9.18;3.90;;;28.90;53.50;;;;;;5207797;28;20044;-80
2022/05/23 12:26:25;;;;;;;8.15;4.70;;;28.70;53.90;;;;;;5208456;28;20045;-80
2022/05/23 12:29:00;;;;;;;62.17;40.33;;;28.70;52.40;;;;;;5195553;28;20052;-78
2022/05/23 12:31:38;;;;;;;13.13;6.78;;;28.80;53.00;;;;;;5209287;28;20371;-76
2022/05/23 12:34:12;;;;;;;11.52;3.45;;;29.10;53.10;;;;;;5194242;28;20492;-76
2022/05/23 12:36:50;;;;;;;8.00;4.40;;;29.50;53.60;;;;;;5207785;28;20049;-76
2022/05/23 12:39:48;;;;;;;7.18;4.45;;;30.20;52.70;;;;;;5199395;28;20033;-77
2022/05/23 12:42:37;;;;;;;11.95;4.43;;;30.10;52.10;;;;;;5211163;28;20049;-76
2022/05/23 12:45:16;;;;;;;6.95;3.75;;;30.10;52.10;;;;;;5208863;28;21137;-78
2022/05/23 12:48:14;;;;;;;6.78;3.72;;;30.40;52.30;;;;;;5207612;28;20056;-77
2022/05/23 12:50:47;;;;;;;11.23;4.05;;;30.30;51.90;;;;;;5222500;28;20051;-77
2022/05/23 12:53:37;;;;;;;10.82;3.78;;;30.20;52.10;;;;;;5227179;28;20040;-78
2022/05/23 12:56:58;;;;;;;8.27;3.70;;;29.70;52.30;;;;;;5212667;28;20055;-79
2022/05/23 12:59:43;;;;;;;7.53;3.65;;;29.40;53.30;;;;;;5120583;28;20413;-77
2022/05/23 13:02:32;;;;;;;8.00;3.75;;;29.60;53.90;;;;;;5199070;28;20064;-76
2022/05/23 13:05:17;;;;;;;15.15;3.72;;;30.10;53.60;;;;;;5201432;28;20389;-76
2022/05/23 13:08:18;;;;;;;8.25;3.90;;;30.10;52.70;;;;;;5221214;28;20502;-78
2022/05/23 13:11:06;;;;;;;9.75;3.42;;;30.60;53.30;;;;;;5191079;28;20067;-76
2022/05/23 13:13:44;;;;;;;11.70;3.78;;;30.40;52.00;;;;;;5203328;28;20060;-76
2022/05/23 13:16:37;;;;;;;9.30;3.50;;;29.70;52.40;;;;;;5235872;22;20047;-73
2022/05/23 13:22:12;;;;;;;6.93;3.85;;;28.20;54.30;;;;;;5238531;28;20051;-75
2022/05/23 13:24:54;;;;;;;9.27;3.97;;;27.70;55.20;;;;;;5231250;28;20672;-74
2022/05/23 13:27:58;;;;;;;12.05;4.05;;;27.50;56.50;;;;;;5229301;28;20071;-74
2022/05/23 13:30:35;;;;;;;12.20;4.00;;;27.30;56.90;;;;;;5222713;28;20334;-74
2022/05/23 13:33:11;;;;;;;8.48;4.50;;;27.00;57.30;;;;;;5217905;28;20048;-75
2022/05/23 13:35:46;;;;;;;8.77;3.90;;;26.90;58.10;;;;;;5229446;28;20063;-74
2022/05/23 13:38:18;;;;;;;10.52;3.67;;;26.70;58.80;;;;;;5233839;28;20044;-75
2022/05/23 13:40:54;;;;;;;11.13;3.85;;;26.60;58.80;;;;;;5216088;28;20051;-76
2022/05/23 13:43:43;;;;;;;11.57;4.22;;;26.60;59.00;;;;;;5228731;28;20048;-74
2022/05/23 13:46:23;;;;;;;13.32;4.07;;;26.50;59.40;;;;;;5228927;28;20118;-73
2022/05/23 13:49:02;;;;;;;9.07;4.10;;;26.40;59.50;;;;;;5230844;28;20473;-75
2022/05/23 13:51:38;;;;;;;12.27;3.85;;;26.40;59.70;;;;;;5233504;28;20044;-73
2022/05/23 13:54:20;;;;;;;9.70;4.07;;;26.30;59.90;;;;;;5232437;28;20051;-75
2022/05/23 13:57:05;;;;;;;16.02;3.95;;;26.30;60.10;;;;;;5228536;28;20052;-74
2022/05/23 13:59:43;;;;;;;12.20;4.20;;;26.20;60.50;;;;;;5241869;28;20946;-74
2022/05/23 14:02:22;;;;;;;13.45;3.97;;;26.10;60.30;;;;;;5235205;28;20035;-73
2022/05/23 14:04:55;;;;;;;11.38;3.83;;;25.90;61.10;;;;;;5228343;28;20048;-74
2022/05/23 14:07:32;;;;;;;13.07;4.78;;;25.80;60.90;;;;;;5227477;28;20051;-74
2022/05/23 14:10:22;;;;;;;11.97;4.07;;;25.70;61.10;;;;;;5236856;28;20522;-73
2022/05/23 14:12:59;;;;;;;10.57;4.00;;;25.60;60.70;;;;;;5230089;28;20051;-74
2022/05/23 14:15:31;;;;;;;14.88;4.45;;;25.50;60.50;;;;;;5226468;28;20048;-75
2022/05/23 14:18:16;;;;;;;11.27;3.80;;;25.40;62.20;;;;;;5226566;28;20711;-75
2022/05/23 14:20:50;;;;;;;9.10;3.75;;;25.30;63.60;;;;;;5229136;28;20048;-75
2022/05/23 14:23:33;;;;;;;11.05;3.40;;;25.20;62.50;;;;;;5219151;28;20586;-73
2022/05/23 14:26:10;;;;;;;9.02;4.00;;;25.10;62.30;;;;;;5224730;28;20051;-72
2022/05/23 14:28:42;;;;;;;8.35;3.95;;;25.00;63.90;;;;;;5237103;28;20052;-72
2022/05/23 14:31:37;;;;;;;11.15;4.13;;;24.90;64.90;;;;;;5225336;28;20531;-73
2022/05/23 14:34:28;;;;;;;11.68;4.28;;;24.80;66.20;;;;;;5223762;28;20044;-74
2022/05/23 14:37:08;;;;;;;8.52;3.90;;;24.70;67.30;;;;;;5225501;28;20472;-73
2022/05/23 14:39:49;;;;;;;11.48;4.50;;;24.60;68.60;;;;;;5248489;28;20411;-73
2022/05/23 14:42:27;;;;;;;11.77;3.92;;;24.50;70.10;;;;;;5249153;28;20048;-74
2022/05/23 14:45:22;;;;;;;8.82;3.90;;;24.30;70.20;;;;;;5230062;28;20052;-73
2022/05/23 14:47:59;;;;;;;;;;;24.20;72.40;;;;;;5243395;28;20055;-73
2022/05/23 14:50:35;;;;;;;7.65;4.13;;;23.90;73.10;;;;;;5251486;28;19920;-73
2022/05/23 14:56:10;;;;;;;19.00;5.32;;;23.70;75.10;;;;;;5244547;28;20495;-73
2022/05/23 15:01:33;;;;;;;10.93;4.82;;;23.30;77.20;;;;;;5239895;28;20423;-72
2022/05/23 15:04:11;;;;;;;15.68;4.60;;;23.20;77.10;;;;;;5253247;28;20044;-72
2022/05/23 15:06:49;;;;;;;13.10;5.50;;;23.10;79.00;;;;;;5244555;28;20063;-73
2022/05/23 15:09:22;;;;;;;;;;;23.00;80.60;;;;;;5247110;22;20058;-71